Time;durP1;ratioP1;P1;durP2;ratioP2;P2;SDS_P1;SDS_P2;PMS_P1;PMS_P2;Temp;Humidity;BMP_temperature;BMP_pressure;BME280_temperature;BME280_humidity;BME280_pressure;Samples;Min_cycle;Max_cycle;Signal;HPM_P1;HPM_P2
2022/07/28 00:01:12;;;;;;;3.07;2.87;;;28.90;52.10;;;;;;5053278;28;20453;-70
2022/07/28 00:03:44;;;;;;;2.60;2.40;;;28.90;52.10;;;;;;5059863;28;20461;-69
2022/07/28 00:06:13;;;;;;;2.83;2.63;;;28.90;52.10;;;;;;5058033;28;20464;-69
2022/07/28 00:08:41;;;;;;;2.47;2.30;;;28.90;52.10;;;;;;5053525;28;20507;-70
2022/07/28 00:11:09;;;;;;;2.27;2.17;;;28.90;52.10;;;;;;5068327;28;20504;-69
2022/07/28 00:13:39;;;;;;;2.63;2.43;;;28.90;52.10;;;;;;5052690;28;20838;-70
2022/07/28 00:16:07;;;;;;;2.30;2.20;;;28.80;52.10;;;;;;5052994;28;20479;-69
2022/07/28 00:18:35;;;;;;;2.83;2.63;;;28.80;52.10;;;;;;5052724;28;20457;-70
2022/07/28 00:21:07;;;;;;;2.70;2.50;;;28.80;52.30;;;;;;5053250;28;20844;-69
2022/07/28 00:23:35;;;;;;;2.80;2.60;;;28.80;52.10;;;;;;5063153;28;20498;-69
2022/07/28 00:26:07;;;;;;;4.10;2.30;;;28.80;52.20;;;;;;5072689;28;20435;-69
2022/07/28 00:28:36;;;;;;;2.87;2.67;;;28.80;52.20;;;;;;5073103;28;20439;-69
2022/07/28 00:31:08;;;;;;;2.97;2.70;;;28.80;52.20;;;;;;5072790;28;20576;-70
2022/07/28 00:33:40;;;;;;;2.60;2.37;;;28.80;52.20;;;;;;5067620;28;20817;-69
2022/07/28 00:36:09;;;;;;;2.57;2.37;;;28.70;52.10;;;;;;5052906;28;20837;-70
2022/07/28 00:38:40;;;;;;;2.70;2.50;;;28.70;52.20;;;;;;5053819;28;20432;-70
2022/07/28 00:41:11;;;;;;;3.13;2.93;;;28.70;52.20;;;;;;5069674;28;20958;-69
2022/07/28 00:43:41;;;;;;;2.27;2.17;;;28.70;52.30;;;;;;5055983;28;20458;-70
2022/07/28 00:46:11;;;;;;;2.63;2.53;;;28.70;52.20;;;;;;5067866;28;20448;-70
2022/07/28 00:48:42;;;;;;;3.13;2.93;;;28.70;52.20;;;;;;5060216;28;20942;-70
2022/07/28 00:51:11;;;;;;;2.97;2.77;;;28.70;52.30;;;;;;5052802;28;20497;-69
2022/07/28 00:53:40;;;;;;;2.83;2.63;;;28.70;52.30;;;;;;5062413;28;20466;-70
2022/07/28 00:56:08;;;;;;;3.90;2.77;;;28.70;52.30;;;;;;5072404;28;20425;-69
2022/07/28 00:58:37;;;;;;;2.90;2.70;;;28.70;52.40;;;;;;5072501;28;20439;-69
2022/07/28 01:01:14;;;;;;;3.30;3.00;;;28.70;52.40;;;;;;5063700;28;20508;-71
2022/07/28 01:03:45;;;;;;;2.90;2.70;;;28.70;52.40;;;;;;5052049;28;20513;-70
2022/07/28 01:06:23;;;;;;;2.60;2.47;;;28.70;52.40;;;;;;5052545;28;20449;-71
2022/07/28 01:09:00;;;;;;;3.10;2.70;;;28.70;52.50;;;;;;5064136;28;20458;-70
2022/07/28 01:11:32;;;;;;;2.90;2.70;;;28.70;52.60;;;;;;5068712;28;20508;-70
2022/07/28 01:14:16;;;;;;;2.93;2.73;;;28.70;52.60;;;;;;5071213;28;20515;-69
2022/07/28 01:16:56;;;;;;;2.50;2.40;;;28.60;52.60;;;;;;5071827;28;20533;-70
2022/07/28 01:19:38;;;;;;;3.60;3.40;;;28.60;52.70;;;;;;5071429;28;20757;-70
2022/07/28 01:22:10;;;;;;;3.43;3.13;;;28.60;52.60;;;;;;5072188;28;20442;-71
2022/07/28 01:24:56;;;;;;;3.20;3.00;;;28.60;52.60;;;;;;5069630;28;20446;-69
2022/07/28 01:27:35;;;;;;;2.80;2.60;;;28.60;52.70;;;;;;5068763;28;20500;-69
2022/07/28 01:30:11;;;;;;;3.10;2.83;;;28.60;52.70;;;;;;5071018;28;20493;-69
2022/07/28 01:32:46;;;;;;;3.40;3.17;;;28.60;52.70;;;;;;5058438;28;20463;-70
2022/07/28 01:35:20;;;;;;;2.77;2.57;;;28.60;52.70;;;;;;5060021;28;20483;-70
2022/07/28 01:37:53;;;;;;;3.43;3.23;;;28.60;52.70;;;;;;5054286;28;20978;-70
2022/07/28 01:40:26;;;;;;;3.57;3.37;;;28.60;52.80;;;;;;5051324;28;20432;-70
2022/07/28 01:42:58;;;;;;;3.03;2.83;;;28.60;52.80;;;;;;5065556;28;20459;-69
2022/07/28 01:45:27;;;;;;;4.27;3.07;;;28.60;52.90;;;;;;5051551;28;20432;-70
2022/07/28 01:48:00;;;;;;;3.03;2.83;;;28.60;52.80;;;;;;5052465;28;20474;-71
2022/07/28 01:50:29;;;;;;;2.83;2.63;;;28.60;53.00;;;;;;5050499;28;20912;-69
2022/07/28 01:52:58;;;;;;;3.27;3.07;;;28.50;53.00;;;;;;5054750;28;20494;-71
2022/07/28 01:55:28;;;;;;;3.17;2.97;;;28.50;53.00;;;;;;5069100;28;20468;-69
2022/07/28 01:57:57;;;;;;;2.97;2.77;;;28.50;53.00;;;;;;5052347;28;20486;-70
2022/07/28 02:00:27;;;;;;;2.83;2.60;;;28.50;53.10;;;;;;5066727;28;20516;-70
2022/07/28 02:03:00;;;;;;;4.27;3.90;;;28.50;53.10;;;;;;5069794;28;20978;-70
2022/07/28 02:05:29;;;;;;;3.40;3.20;;;28.50;53.10;;;;;;5069680;28;20484;-69
2022/07/28 02:08:00;;;;;;;3.00;2.80;;;28.50;53.10;;;;;;5051253;28;20442;-70
2022/07/28 02:10:29;;;;;;;3.30;3.20;;;28.50;53.20;;;;;;5051830;28;20459;-70
2022/07/28 02:13:00;;;;;;;3.20;3.00;;;28.50;53.30;;;;;;5062998;28;20519;-70
2022/07/28 02:15:29;;;;;;;3.10;3.00;;;28.50;53.30;;;;;;5062008;28;20608;-70
2022/07/28 02:18:00;;;;;;;3.50;3.20;;;28.50;53.30;;;;;;5070772;28;20435;-70
2022/07/28 02:20:29;;;;;;;3.07;2.87;;;28.50;53.30;;;;;;5071021;28;20513;-70
2022/07/28 02:22:58;;;;;;;3.03;2.83;;;28.50;53.40;;;;;;5061689;28;20459;-70
2022/07/28 02:25:29;;;;;;;3.50;3.30;;;28.40;53.40;;;;;;5052061;28;20938;-70
2022/07/28 02:28:01;;;;;;;4.23;3.90;;;28.40;53.40;;;;;;5050845;28;20458;-69
2022/07/28 02:30:35;;;;;;;3.30;3.10;;;28.40;53.50;;;;;;5051376;28;20482;-69
2022/07/28 02:33:12;;;;;;;3.40;3.30;;;28.40;53.50;;;;;;5055403;28;20509;-69
2022/07/28 02:35:46;;;;;;;3.30;3.00;;;28.40;53.60;;;;;;5051118;28;20920;-69
2022/07/28 02:38:27;;;;;;;2.90;2.80;;;28.40;53.60;;;;;;5050360;28;20528;-70
2022/07/28 02:41:00;;;;;;;3.60;3.30;;;28.40;53.60;;;;;;5050942;28;20501;-69
2022/07/28 02:43:35;;;;;;;3.77;3.50;;;28.40;53.60;;;;;;5051708;28;20479;-70
2022/07/28 02:46:22;;;;;;;3.83;3.53;;;28.40;53.70;;;;;;5065523;28;20453;-69
2022/07/28 02:48:56;;;;;;;3.87;3.67;;;28.40;53.70;;;;;;5063087;28;20462;-69
2022/07/28 02:51:27;;;;;;;3.90;3.60;;;28.30;53.70;;;;;;5062670;28;20553;-71
2022/07/28 02:53:57;;;;;;;3.87;3.57;;;28.30;53.70;;;;;;5050927;28;20955;-70
2022/07/28 02:56:26;;;;;;;3.80;3.60;;;28.30;53.80;;;;;;5052319;28;20435;-70
2022/07/28 02:58:55;;;;;;;3.77;3.47;;;28.30;53.80;;;;;;5055472;28;20452;-70
2022/07/28 03:01:24;;;;;;;4.10;3.80;;;28.30;53.80;;;;;;5055755;28;20784;-69
2022/07/28 03:03:54;;;;;;;4.10;3.43;;;28.30;53.80;;;;;;5054666;28;20497;-70
2022/07/28 03:06:23;;;;;;;4.83;4.43;;;28.30;53.90;;;;;;5054087;28;20946;-72
2022/07/28 03:08:56;;;;;;;3.93;3.63;;;28.30;53.90;;;;;;5067390;28;20858;-69
2022/07/28 03:11:25;;;;;;;3.60;3.30;;;28.30;53.80;;;;;;5070946;28;20815;-69
2022/07/28 03:13:54;;;;;;;4.40;4.10;;;28.30;53.90;;;;;;5056567;28;20898;-70
2022/07/28 03:16:22;;;;;;;3.30;3.10;;;28.30;53.90;;;;;;5054615;28;20569;-69
2022/07/28 03:18:51;;;;;;;3.57;3.37;;;28.30;53.90;;;;;;5067683;28;20556;-69
2022/07/28 03:21:20;;;;;;;4.20;3.80;;;28.30;53.90;;;;;;5074011;28;20466;-69
2022/07/28 03:23:51;;;;;;;3.80;3.60;;;28.30;53.90;;;;;;5059452;28;20450;-69
2022/07/28 03:26:24;;;;;;;4.00;3.80;;;28.30;53.90;;;;;;5055108;28;20461;-70
2022/07/28 03:28:54;;;;;;;4.20;3.90;;;28.20;53.90;;;;;;5054019;28;20476;-69
2022/07/28 03:31:25;;;;;;;3.50;3.20;;;28.20;53.90;;;;;;5054534;28;20452;-70
2022/07/28 03:33:54;;;;;;;3.57;3.27;;;28.20;53.90;;;;;;5055168;28;20559;-70
2022/07/28 03:36:29;;;;;;;5.03;4.30;;;28.20;53.90;;;;;;5055699;28;20493;-70
2022/07/28 03:39:01;;;;;;;4.03;3.73;;;28.20;53.90;;;;;;5058164;28;20455;-70
2022/07/28 03:41:32;;;;;;;3.67;3.47;;;28.20;53.90;;;;;;5054686;28;20452;-69
2022/07/28 03:44:01;;;;;;;3.73;3.43;;;28.20;54.00;;;;;;5065819;28;20454;-69
2022/07/28 03:46:29;;;;;;;3.83;3.53;;;28.20;54.00;;;;;;5072570;28;20448;-70
2022/07/28 03:48:58;;;;;;;4.03;3.73;;;28.20;54.00;;;;;;5068155;28;20478;-70
2022/07/28 03:51:28;;;;;;;4.00;3.70;;;28.10;54.00;;;;;;5072538;28;20494;-70
2022/07/28 03:53:56;;;;;;;3.30;3.10;;;28.10;54.10;;;;;;5072388;28;21098;-70
2022/07/28 03:56:24;;;;;;;4.83;4.43;;;28.10;54.20;;;;;;5074000;28;20462;-69
2022/07/28 03:58:53;;;;;;;3.80;3.60;;;28.10;54.10;;;;;;5058179;28;20499;-69
2022/07/28 04:01:21;;;;;;;3.80;3.50;;;28.10;54.20;;;;;;5055483;28;20529;-69
2022/07/28 04:03:49;;;;;;;4.03;3.73;;;28.10;54.20;;;;;;5063134;28;20447;-70
2022/07/28 04:06:17;;;;;;;4.03;3.73;;;28.10;54.20;;;;;;5071598;28;20476;-69
2022/07/28 04:08:47;;;;;;;4.00;3.67;;;28.10;54.20;;;;;;5055464;28;20586;-70
2022/07/28 04:11:15;;;;;;;4.90;3.93;;;28.10;54.30;;;;;;5069348;28;21015;-69
2022/07/28 04:13:43;;;;;;;4.77;4.27;;;28.10;54.20;;;;;;5060223;28;21004;-71
2022/07/28 04:16:12;;;;;;;4.20;3.80;;;28.10;54.20;;;;;;5060781;28;20568;-69
2022/07/28 04:18:41;;;;;;;4.13;3.93;;;28.10;54.30;;;;;;5055758;28;20473;-70
2022/07/28 04:21:09;;;;;;;4.30;4.00;;;28.00;54.20;;;;;;5059205;28;20494;-69
2022/07/28 04:23:37;;;;;;;3.93;3.60;;;28.00;54.30;;;;;;5063167;28;20497;-69
2022/07/28 04:26:08;;;;;;;4.13;3.83;;;28.00;54.30;;;;;;5064604;28;20465;-70
2022/07/28 04:28:36;;;;;;;4.23;3.90;;;28.00;54.30;;;;;;5062200;28;21007;-69
2022/07/28 04:31:07;;;;;;;3.93;3.63;;;28.10;54.30;;;;;;5062895;28;20540;-69
2022/07/28 04:33:36;;;;;;;3.50;3.30;;;28.10;54.20;;;;;;5057737;28;20527;-69
2022/07/28 04:36:07;;;;;;;4.47;4.17;;;28.10;54.30;;;;;;5053826;28;20462;-69
2022/07/28 04:38:35;;;;;;;4.27;3.97;;;28.00;54.20;;;;;;5057515;28;20865;-70
2022/07/28 04:41:06;;;;;;;4.10;3.80;;;28.10;54.30;;;;;;5061706;28;20445;-70
2022/07/28 04:43:36;;;;;;;3.97;3.67;;;28.00;54.30;;;;;;5053838;28;20439;-69
2022/07/28 04:46:07;;;;;;;4.90;4.00;;;28.00;54.40;;;;;;5059159;28;20557;-69
2022/07/28 04:48:41;;;;;;;3.40;3.20;;;28.00;54.30;;;;;;5056533;28;20830;-69
2022/07/28 04:51:10;;;;;;;3.20;3.00;;;28.00;54.60;;;;;;5053698;28;20496;-69
2022/07/28 04:53:38;;;;;;;3.57;3.27;;;28.10;54.60;;;;;;5057575;28;20473;-69
2022/07/28 04:56:06;;;;;;;4.13;3.63;;;28.10;54.60;;;;;;5055143;28;20502;-70
2022/07/28 04:58:36;;;;;;;4.13;3.87;;;28.20;54.60;;;;;;5055632;28;20469;-70
2022/07/28 05:01:08;;;;;;;3.83;3.53;;;28.20;54.60;;;;;;5053763;28;20456;-69
2022/07/28 05:03:36;;;;;;;3.57;3.27;;;28.20;54.70;;;;;;5052820;28;20460;-69
2022/07/28 05:06:08;;;;;;;4.10;3.70;;;28.20;54.70;;;;;;5052565;28;20485;-69
2022/07/28 05:08:36;;;;;;;3.33;3.13;;;28.30;54.80;;;;;;5058164;28;20974;-69
2022/07/28 05:11:07;;;;;;;3.27;3.07;;;28.30;54.80;;;;;;5062041;28;20458;-69
2022/07/28 05:13:36;;;;;;;3.27;3.07;;;28.30;54.80;;;;;;5063975;28;20569;-69
2022/07/28 05:16:08;;;;;;;3.40;3.10;;;28.30;54.90;;;;;;5059591;28;20476;-69
2022/07/28 05:18:36;;;;;;;3.73;3.43;;;28.30;54.90;;;;;;5064304;28;20750;-69
2022/07/28 05:21:07;;;;;;;3.53;3.33;;;28.30;55.00;;;;;;5057971;28;20534;-69
2022/07/28 05:23:35;;;;;;;3.20;3.00;;;28.40;55.00;;;;;;5055072;28;20459;-69
2022/07/28 05:26:06;;;;;;;4.30;3.47;;;28.40;55.00;;;;;;5059371;28;20546;-70
2022/07/28 05:28:36;;;;;;;6.10;3.90;;;28.40;55.10;;;;;;5054950;28;20541;-69
2022/07/28 05:31:07;;;;;;;4.67;4.27;;;28.40;55.10;;;;;;5054995;28;20465;-69
2022/07/28 05:33:36;;;;;;;4.53;4.00;;;28.40;55.20;;;;;;5056763;28;20946;-69
2022/07/28 05:36:07;;;;;;;5.50;3.53;;;28.40;55.20;;;;;;5053273;28;20455;-69
2022/07/28 05:38:35;;;;;;;3.87;3.57;;;28.40;55.20;;;;;;5055116;28;21028;-69
2022/07/28 05:41:07;;;;;;;4.70;4.30;;;28.40;55.20;;;;;;5055115;28;20451;-69
2022/07/28 05:43:37;;;;;;;4.77;4.37;;;28.40;55.30;;;;;;5057596;28;20468;-69
2022/07/28 05:46:08;;;;;;;6.67;4.93;;;28.40;55.30;;;;;;5063597;28;20611;-69
2022/07/28 05:48:36;;;;;;;6.63;4.80;;;28.50;55.30;;;;;;5059631;28;20452;-69
2022/07/28 05:51:05;;;;;;;10.17;4.20;;;28.50;55.30;;;;;;5048813;28;21017;-69
2022/07/28 05:53:34;;;;;;;4.80;4.40;;;28.50;55.70;;;;;;5053880;28;20477;-70
2022/07/28 05:56:04;;;;;;;7.93;4.67;;;28.50;55.80;;;;;;5057342;28;20452;-71
2022/07/28 05:58:33;;;;;;;7.20;5.20;;;28.50;55.90;;;;;;5053441;28;20445;-71
2022/07/28 06:01:06;;;;;;;9.23;4.80;;;28.50;56.00;;;;;;5058792;28;20494;-71
2022/07/28 06:03:35;;;;;;;6.87;5.07;;;28.60;56.10;;;;;;5051490;28;21774;-71
2022/07/28 06:06:09;;;;;;;6.33;4.60;;;28.60;56.10;;;;;;5056255;28;20835;-71
2022/07/28 06:08:45;;;;;;;8.50;5.00;;;28.60;56.20;;;;;;5057100;28;20447;-71
2022/07/28 06:11:15;;;;;;;5.87;5.13;;;28.60;56.30;;;;;;5062164;28;20467;-72
2022/07/28 06:13:50;;;;;;;6.20;5.10;;;28.60;56.30;;;;;;5064221;28;20485;-70
2022/07/28 06:16:21;;;;;;;5.30;4.80;;;28.60;56.30;;;;;;5063228;28;20498;-71
2022/07/28 06:18:51;;;;;;;6.43;4.63;;;28.70;56.30;;;;;;5063713;28;20515;-70
2022/07/28 06:21:22;;;;;;;5.77;5.20;;;28.70;56.30;;;;;;5062048;28;20474;-70
2022/07/28 06:23:50;;;;;;;8.63;4.77;;;28.70;56.40;;;;;;5052940;28;20453;-69
2022/07/28 06:26:19;;;;;;;7.33;5.33;;;28.70;56.40;;;;;;5061604;28;20498;-71
2022/07/28 06:28:51;;;;;;;4.93;4.50;;;28.70;56.40;;;;;;5067805;28;20479;-70
2022/07/28 06:31:20;;;;;;;5.93;5.30;;;28.70;56.40;;;;;;5060701;28;20445;-68
2022/07/28 06:33:49;;;;;;;9.53;5.13;;;28.80;56.40;;;;;;5064973;28;20905;-70
2022/07/28 06:36:17;;;;;;;5.30;4.40;;;28.80;56.40;;;;;;5059610;28;20460;-72
2022/07/28 06:38:45;;;;;;;8.07;5.63;;;28.80;56.40;;;;;;5061231;28;20454;-70
2022/07/28 06:41:13;;;;;;;5.23;4.73;;;28.80;56.40;;;;;;5062853;28;20438;-71
2022/07/28 06:43:42;;;;;;;5.17;4.67;;;28.80;56.40;;;;;;5064249;28;20509;-69
2022/07/28 06:46:10;;;;;;;5.73;4.70;;;28.90;56.40;;;;;;5060330;28;20448;-70
2022/07/28 06:48:42;;;;;;;5.80;5.20;;;28.90;56.40;;;;;;5070877;28;20911;-70
2022/07/28 06:51:10;;;;;;;5.63;4.83;;;28.90;56.40;;;;;;5065497;28;20524;-70
2022/07/28 06:53:38;;;;;;;6.17;4.80;;;28.90;56.30;;;;;;5054592;28;20562;-70
2022/07/28 06:56:07;;;;;;;5.30;4.80;;;28.90;56.30;;;;;;5067744;28;20805;-71
2022/07/28 06:58:40;;;;;;;5.10;4.60;;;28.90;56.30;;;;;;5056824;28;20806;-70
2022/07/28 07:01:13;;;;;;;5.30;4.80;;;28.90;56.30;;;;;;5056077;28;20486;-70
2022/07/28 07:03:43;;;;;;;6.03;4.90;;;28.90;56.30;;;;;;5067966;28;20456;-71
2022/07/28 07:06:12;;;;;;;4.63;4.20;;;28.90;56.30;;;;;;5063568;28;20483;-71
2022/07/28 07:08:40;;;;;;;7.47;5.10;;;29.00;56.30;;;;;;5054598;28;20483;-71
2022/07/28 07:11:08;;;;;;;4.77;4.30;;;29.00;56.40;;;;;;5064870;28;20488;-70
2022/07/28 07:13:36;;;;;;;5.30;4.80;;;29.00;56.30;;;;;;5058968;28;20478;-70
2022/07/28 07:16:07;;;;;;;5.43;4.23;;;29.00;56.30;;;;;;5067641;28;20497;-70
2022/07/28 07:18:36;;;;;;;5.43;5.03;;;29.00;56.30;;;;;;5058341;28;20454;-72
2022/07/28 07:21:09;;;;;;;5.93;4.50;;;29.00;56.30;;;;;;5058285;28;20484;-70
2022/07/28 07:23:37;;;;;;;4.93;4.10;;;29.00;56.30;;;;;;5064453;28;20492;-70
2022/07/28 07:26:08;;;;;;;5.10;4.70;;;29.10;56.30;;;;;;5065951;28;20445;-69
2022/07/28 07:28:37;;;;;;;4.53;4.13;;;29.10;56.30;;;;;;5067389;28;20469;-69
2022/07/28 07:31:08;;;;;;;5.13;4.60;;;29.10;56.20;;;;;;5057605;28;20504;-72
2022/07/28 07:33:37;;;;;;;4.70;4.30;;;29.10;56.30;;;;;;5063095;28;20479;-71
2022/07/28 07:36:09;;;;;;;4.93;4.40;;;29.10;56.30;;;;;;5071681;28;21214;-71
2022/07/28 07:38:38;;;;;;;4.70;4.10;;;29.10;56.40;;;;;;5063168;28;20553;-72
2022/07/28 07:41:06;;;;;;;4.80;4.40;;;29.10;56.30;;;;;;5067552;28;20497;-71
2022/07/28 07:43:34;;;;;;;4.50;4.10;;;29.10;56.30;;;;;;5056703;28;20841;-71
2022/07/28 07:46:05;;;;;;;5.33;4.80;;;29.10;56.40;;;;;;5066706;28;20461;-71
2022/07/28 07:48:33;;;;;;;4.30;4.00;;;29.20;56.30;;;;;;5063259;28;20516;-69
2022/07/28 07:51:04;;;;;;;5.40;4.87;;;29.20;56.20;;;;;;5067268;28;20479;-69
2022/07/28 07:53:34;;;;;;;7.70;4.33;;;29.20;56.10;;;;;;5061118;28;20452;-70
2022/07/28 07:56:07;;;;;;;5.43;4.93;;;29.20;56.30;;;;;;5056058;28;20507;-70
2022/07/28 07:58:35;;;;;;;4.97;4.53;;;29.20;56.30;;;;;;5057157;28;20462;-71
2022/07/28 08:01:06;;;;;;;4.40;4.10;;;29.20;56.30;;;;;;5053886;28;20450;-71
2022/07/28 08:03:34;;;;;;;5.00;4.50;;;29.20;56.40;;;;;;5055457;28;20462;-69
2022/07/28 08:06:05;;;;;;;5.23;4.00;;;29.20;56.40;;;;;;5065140;28;20444;-70
2022/07/28 08:08:34;;;;;;;5.30;4.73;;;29.20;56.10;;;;;;5056984;28;20975;-69
2022/07/28 08:11:15;;;;;;;5.20;4.33;;;29.20;56.20;;;;;;5061972;28;20459;-70
2022/07/28 08:13:43;;;;;;;5.23;4.80;;;29.20;56.40;;;;;;5060126;28;21449;-68
2022/07/28 08:16:11;;;;;;;6.47;5.77;;;29.20;56.40;;;;;;5058850;28;20935;-69
2022/07/28 08:18:40;;;;;;;4.90;4.57;;;29.20;56.50;;;;;;5059426;28;20501;-68
2022/07/28 08:21:08;;;;;;;5.27;4.80;;;29.30;56.50;;;;;;5059564;28;20946;-69
2022/07/28 08:23:38;;;;;;;5.57;4.53;;;29.30;56.50;;;;;;5053222;28;20449;-69
2022/07/28 08:26:06;;;;;;;5.37;4.97;;;29.30;56.50;;;;;;5060506;28;20475;-70
2022/07/28 08:28:35;;;;;;;4.67;4.33;;;29.30;56.50;;;;;;5060071;28;20456;-72
2022/07/28 08:31:06;;;;;;;5.23;4.80;;;29.30;56.30;;;;;;5059295;28;20455;-70
2022/07/28 08:33:34;;;;;;;5.27;4.77;;;29.30;56.40;;;;;;5057155;28;20937;-70
2022/07/28 08:36:20;;;;;;;4.90;4.50;;;29.30;56.30;;;;;;5062297;28;20478;-70
2022/07/28 08:38:50;;;;;;;4.50;4.10;;;29.40;56.30;;;;;;5063598;28;20449;-70
2022/07/28 08:41:26;;;;;;;4.73;4.43;;;29.40;56.20;;;;;;5059310;28;20818;-71
2022/07/28 08:44:03;;;;;;;4.97;4.57;;;29.40;56.20;;;;;;5059910;28;20449;-70
2022/07/28 08:46:35;;;;;;;5.33;4.83;;;29.40;56.20;;;;;;5055188;28;20860;-69
2022/07/28 08:49:08;;;;;;;4.67;4.27;;;29.40;56.20;;;;;;5059614;28;20498;-69
2022/07/28 08:51:37;;;;;;;4.67;4.37;;;29.40;56.20;;;;;;5061803;28;20517;-70
2022/07/28 08:54:09;;;;;;;4.97;4.57;;;29.40;56.20;;;;;;5067851;28;20452;-70
2022/07/28 08:56:41;;;;;;;5.67;5.07;;;29.40;56.20;;;;;;5067017;28;20493;-70
2022/07/28 08:59:16;;;;;;;5.20;4.70;;;29.40;56.20;;;;;;5052382;28;20453;-70
2022/07/28 09:01:46;;;;;;;5.37;4.97;;;29.40;56.20;;;;;;5054470;28;20925;-70
2022/07/28 09:04:16;;;;;;;5.60;5.03;;;29.40;56.30;;;;;;5061034;28;20449;-70
2022/07/28 09:06:45;;;;;;;5.10;4.70;;;29.50;56.30;;;;;;5053518;28;20836;-70
2022/07/28 09:09:15;;;;;;;5.97;5.57;;;29.50;56.30;;;;;;5063177;28;20923;-71
2022/07/28 09:11:43;;;;;;;5.00;4.70;;;29.50;56.30;;;;;;5065408;28;20489;-72
2022/07/28 09:14:12;;;;;;;5.10;4.70;;;29.50;56.20;;;;;;5071274;28;20450;-69
2022/07/28 09:16:41;;;;;;;5.20;4.70;;;29.50;56.20;;;;;;5060462;28;20523;-70
2022/07/28 09:19:09;;;;;;;5.10;4.53;;;29.50;56.20;;;;;;5054385;28;20458;-70
2022/07/28 09:21:37;;;;;;;5.90;5.50;;;29.50;56.20;;;;;;5056605;28;20469;-69
2022/07/28 09:24:07;;;;;;;4.70;4.40;;;29.50;56.20;;;;;;5057624;28;20955;-70
2022/07/28 09:26:36;;;;;;;5.17;4.80;;;29.50;56.20;;;;;;5051977;28;20468;-69
2022/07/28 09:29:06;;;;;;;8.30;7.60;;;29.60;56.20;;;;;;5061413;28;20816;-70
2022/07/28 09:31:34;;;;;;;7.83;5.77;;;29.30;56.80;;;;;;5059337;28;20469;-72
2022/07/28 09:34:05;;;;;;;9.93;8.50;;;29.10;56.90;;;;;;5063613;28;20480;-71
2022/07/28 09:36:38;;;;;;;7.13;6.47;;;29.00;57.50;;;;;;5062663;28;20560;-68
2022/07/28 09:39:07;;;;;;;8.63;7.93;;;29.00;57.50;;;;;;5051027;28;20461;-69
2022/07/28 09:41:49;;;;;;;6.97;6.40;;;29.00;57.50;;;;;;5062178;28;20827;-71
2022/07/28 09:44:22;;;;;;;6.70;6.30;;;28.90;57.80;;;;;;5064694;28;20485;-69
2022/07/28 09:46:50;;;;;;;8.97;7.40;;;28.90;57.70;;;;;;5056323;28;20453;-68
2022/07/28 09:49:19;;;;;;;7.10;6.53;;;28.90;58.20;;;;;;5062825;28;20461;-68
2022/07/28 09:52:04;;;;;;;7.27;6.73;;;29.00;58.10;;;;;;5057609;28;21003;-69
2022/07/28 09:54:33;;;;;;;8.57;7.97;;;28.90;57.90;;;;;;5051667;28;20469;-71
2022/07/28 09:57:12;;;;;;;8.70;8.00;;;29.00;58.00;;;;;;5053539;28;20457;-70
2022/07/28 09:59:42;;;;;;;7.87;7.17;;;29.10;57.90;;;;;;5063438;28;20881;-70
2022/07/28 10:02:23;;;;;;;10.67;7.77;;;29.10;57.90;;;;;;5058756;28;20457;-70
2022/07/28 10:04:54;;;;;;;6.83;6.23;;;29.10;58.10;;;;;;5056749;28;20906;-71
2022/07/28 10:07:22;;;;;;;8.07;7.47;;;29.10;58.00;;;;;;5061140;28;20468;-70
2022/07/28 10:09:58;;;;;;;8.67;8.00;;;29.10;58.00;;;;;;5050464;28;20496;-70
2022/07/28 10:12:30;;;;;;;8.90;7.20;;;29.10;57.70;;;;;;5013210;28;20465;-70
2022/07/28 10:16:09;;;;;;;8.57;7.87;;;29.20;58.20;;;;;;5055313;28;21334;-71
2022/07/28 10:17:59;;;;;;;7.00;6.50;;;29.20;57.90;;;;;;5070782;28;20488;-70
2022/07/28 10:20:29;;;;;;;7.63;7.03;;;29.20;57.70;;;;;;5058325;28;20953;-70
2022/07/28 10:23:02;;;;;;;6.93;6.43;;;29.30;57.80;;;;;;5061527;28;20465;-71
2022/07/28 10:25:32;;;;;;;8.70;8.00;;;29.40;57.70;;;;;;5057105;28;20500;-70
2022/07/28 10:28:04;;;;;;;6.23;5.63;;;29.40;57.60;;;;;;5058051;28;20435;-67
2022/07/28 10:30:39;;;;;;;6.20;5.80;;;29.40;57.10;;;;;;5058217;28;20950;-68
2022/07/28 10:33:14;;;;;;;6.33;5.93;;;29.30;57.00;;;;;;5057484;28;20492;-69
2022/07/28 10:35:46;;;;;;;6.10;5.70;;;29.20;57.10;;;;;;5055950;28;20487;-69
2022/07/28 10:38:26;;;;;;;6.00;5.60;;;29.20;56.90;;;;;;5053861;28;21023;-69
2022/07/28 10:40:58;;;;;;;6.90;6.40;;;29.20;56.80;;;;;;5056390;28;20536;-69
2022/07/28 10:43:29;;;;;;;8.47;7.87;;;29.30;56.80;;;;;;5055380;28;20827;-69
2022/07/28 10:45:58;;;;;;;8.47;7.63;;;29.30;55.90;;;;;;5064101;28;20813;-69
2022/07/28 10:48:39;;;;;;;7.60;7.00;;;29.40;56.50;;;;;;5068661;28;20510;-69
2022/07/28 10:51:11;;;;;;;8.57;7.97;;;29.40;56.30;;;;;;5053564;28;20502;-68
2022/07/28 10:53:46;;;;;;;7.93;7.33;;;29.50;56.00;;;;;;5052976;28;20583;-68
2022/07/28 10:56:21;;;;;;;7.27;6.77;;;29.50;56.00;;;;;;5060381;28;20478;-68
2022/07/28 10:58:59;;;;;;;7.37;6.67;;;29.50;56.10;;;;;;5070664;28;20456;-68
2022/07/28 11:01:36;;;;;;;8.37;7.70;;;29.60;56.20;;;;;;5065076;28;20923;-69
2022/07/28 11:04:54;;;;;;;8.10;7.50;;;29.50;56.20;;;;;;5063686;28;20602;-69
2022/07/28 11:07:22;;;;;;;7.83;6.67;;;29.60;56.10;;;;;;5053755;28;20536;-68
2022/07/28 11:09:52;;;;;;;6.90;6.20;;;29.60;56.00;;;;;;5050585;28;20545;-68
2022/07/28 11:12:48;;;;;;;6.50;6.00;;;29.60;55.90;;;;;;5056652;28;20468;-68
2022/07/28 11:15:28;;;;;;;7.23;6.60;;;29.50;56.20;;;;;;5055475;28;20502;-69
2022/07/28 11:18:06;;;;;;;6.40;5.97;;;29.50;56.30;;;;;;5055589;28;20530;-69
2022/07/28 11:21:08;;;;;;;6.30;5.90;;;29.40;56.50;;;;;;5059338;28;20462;-68
2022/07/28 11:23:47;;;;;;;7.83;7.23;;;29.40;56.60;;;;;;5055619;28;20457;-69
2022/07/28 11:26:40;;;;;;;7.60;6.80;;;29.30;56.60;;;;;;5058610;28;20489;-68
2022/07/28 11:29:20;;;;;;;6.90;6.40;;;29.20;56.80;;;;;;5057186;28;20496;-68
2022/07/28 11:32:06;;;;;;;6.50;6.00;;;29.30;57.10;;;;;;5054580;28;20515;-69
2022/07/28 11:35:06;;;;;;;6.90;6.40;;;29.40;56.80;;;;;;5053604;28;20538;-69
2022/07/28 11:38:09;;;;;;;6.97;6.50;;;29.50;56.60;;;;;;5036395;28;20535;-69
2022/07/28 11:40:41;;;;;;;5.97;5.57;;;29.50;56.50;;;;;;5056588;28;20460;-70
2022/07/28 11:43:34;;;;;;;6.30;5.90;;;29.50;56.50;;;;;;5054974;28;20454;-69
2022/07/28 11:46:34;;;;;;;6.30;5.90;;;29.70;54.90;;;;;;5052866;28;20538;-69
2022/07/28 11:49:24;;;;;;;7.57;6.87;;;29.70;55.00;;;;;;5054308;28;20465;-69
2022/07/28 11:52:12;;;;;;;6.50;6.00;;;29.70;55.30;;;;;;5055140;28;20546;-70
2022/07/28 11:54:52;;;;;;;6.70;6.20;;;29.70;55.60;;;;;;5051121;28;20978;-72
2022/07/28 11:57:24;;;;;;;6.43;6.00;;;29.80;55.00;;;;;;5057699;28;20518;-72
2022/07/28 11:59:59;;;;;;;8.20;6.00;;;29.80;55.10;;;;;;5053806;28;20526;-72
2022/07/28 12:02:30;;;;;;;7.83;7.20;;;29.90;55.30;;;;;;5053447;28;20508;-75
2022/07/28 12:05:12;;;;;;;6.33;5.83;;;30.10;54.20;;;;;;5054007;28;20464;-71
2022/07/28 12:07:43;;;;;;;6.57;6.03;;;30.10;55.10;;;;;;5051447;28;20458;-73
2022/07/28 12:10:26;;;;;;;7.20;6.50;;;30.20;54.80;;;;;;5054654;28;20503;-72
2022/07/28 12:13:14;;;;;;;5.97;5.43;;;30.10;55.20;;;;;;5054728;28;20455;-72
2022/07/28 12:15:50;;;;;;;5.80;5.40;;;30.10;54.90;;;;;;5053066;28;20886;-73
2022/07/28 12:18:19;;;;;;;5.70;5.20;;;30.20;54.40;;;;;;5057448;28;20448;-72
2022/07/28 12:20:53;;;;;;;6.10;5.50;;;30.10;54.00;;;;;;5056795;28;20456;-71
2022/07/28 12:23:30;;;;;;;6.97;6.37;;;30.10;54.80;;;;;;5052240;28;20449;-72
2022/07/28 12:26:28;;;;;;;5.73;5.20;;;30.20;54.80;;;;;;5057556;28;20458;-72
2022/07/28 12:28:58;;;;;;;6.33;5.77;;;30.30;54.50;;;;;;5061908;28;21047;-71
2022/07/28 12:31:31;;;;;;;6.30;5.70;;;30.70;53.40;;;;;;5055293;28;20503;-72
2022/07/28 12:34:00;;;;;;;5.20;4.90;;;31.00;53.10;;;;;;5058199;28;20485;-71
2022/07/28 12:36:30;;;;;;;6.50;5.90;;;31.30;52.60;;;;;;5057826;28;20481;-71
2022/07/28 12:39:00;;;;;;;5.80;5.40;;;31.50;52.10;;;;;;5053134;28;20832;-71
2022/07/28 12:41:32;;;;;;;6.20;5.73;;;31.40;52.40;;;;;;5058816;28;20458;-71
2022/07/28 12:44:02;;;;;;;6.10;5.60;;;31.30;52.70;;;;;;5058489;28;20953;-71
2022/07/28 12:46:33;;;;;;;5.70;5.30;;;31.20;52.70;;;;;;5058000;28;20478;-71
2022/07/28 12:49:02;;;;;;;6.33;5.87;;;31.40;52.30;;;;;;5056780;28;20535;-71
2022/07/28 12:51:33;;;;;;;5.47;5.00;;;31.50;51.30;;;;;;5057106;28;20997;-71
2022/07/28 12:54:02;;;;;;;6.77;6.27;;;31.40;52.50;;;;;;5069719;28;20477;-70
2022/07/28 12:56:30;;;;;;;5.90;5.47;;;31.30;51.80;;;;;;5064282;28;20478;-71
2022/07/28 12:59:06;;;;;;;5.80;5.40;;;31.20;52.10;;;;;;5059624;28;20828;-71
2022/07/28 13:01:51;;;;;;;5.50;5.17;;;31.10;51.40;;;;;;5055011;28;20604;-71
2022/07/28 13:04:39;;;;;;;5.57;5.27;;;31.00;52.20;;;;;;5061023;28;20462;-69
2022/07/28 13:07:11;;;;;;;5.50;5.10;;;30.90;52.90;;;;;;5052422;28;20450;-69
2022/07/28 13:09:49;;;;;;;5.60;5.20;;;30.80;53.80;;;;;;5058331;28;20600;-69
2022/07/28 13:12:29;;;;;;;4.87;4.53;;;30.90;54.30;;;;;;5060618;28;20482;-68
2022/07/28 13:14:59;;;;;;;7.53;4.73;;;31.10;53.60;;;;;;5051730;28;20995;-68